Time;durP1;ratioP1;P1;durP2;ratioP2;P2;SDS_P1;SDS_P2;PMS_P1;PMS_P2;Temp;Humidity;BMP_temperature;BMP_pressure;BME280_temperature;BME280_humidity;BME280_pressure;Samples;Min_cycle;Max_cycle;Signal;HPM_P1;HPM_P2
2021/05/03 00:01:50;;;;;;;10.95;3.25;;;6.90;99.90;;;;;;3528440;40;20039;-61
2021/05/03 00:04:16;;;;;;;6.78;3.60;;;7.00;99.90;;;;;;3529146;40;20127;-61
2021/05/03 00:06:42;;;;;;;8.30;3.20;;;6.90;99.90;;;;;;3527765;40;20090;-61
2021/05/03 00:09:08;;;;;;;9.85;3.25;;;6.90;99.90;;;;;;3529407;40;20371;-68
2021/05/03 00:11:34;;;;;;;5.97;3.08;;;6.80;99.90;;;;;;3528621;40;20033;-69
2021/05/03 00:14:01;;;;;;;9.43;4.63;;;7.80;99.90;;;;;;3528646;40;20050;-68
2021/05/03 00:16:26;;;;;;;9.52;3.00;;;6.70;99.90;;;;;;3528959;40;20420;-68
2021/05/03 00:18:52;;;;;;;6.72;3.58;;;6.60;99.90;;;;;;3526894;40;20047;-68
2021/05/03 00:21:18;;;;;;;10.27;3.47;;;6.60;99.90;;;;;;3527224;40;20045;-68
2021/05/03 00:23:44;;;;;;;10.05;4.05;;;6.50;99.90;;;;;;3528696;40;20046;-67
2021/05/03 00:26:11;;;;;;;10.73;4.15;;;6.50;99.90;;;;;;3528005;40;20046;-62
2021/05/03 00:28:37;;;;;;;5.38;3.20;;;6.40;99.90;;;;;;3527575;40;20034;-62
2021/05/03 00:31:04;;;;;;;9.02;3.55;;;6.40;99.90;;;;;;3527371;40;20122;-61
2021/05/03 00:33:29;;;;;;;8.68;4.10;;;6.40;99.90;;;;;;3528717;40;20239;-61
2021/05/03 00:35:55;;;;;;;7.95;3.47;;;6.30;99.90;;;;;;3534743;40;20472;-61
2021/05/03 00:38:21;;;;;;;9.02;3.95;;;6.30;99.90;;;;;;3528729;40;20140;-61
2021/05/03 00:40:46;;;;;;;9.57;3.95;;;6.20;99.90;;;;;;3527570;40;20048;-61
2021/05/03 00:43:18;;;;;;;11.75;4.00;;;6.20;99.90;;;;;;3527498;40;20115;-61
2021/05/03 00:45:44;;;;;;;10.77;4.38;;;6.10;99.90;;;;;;3529280;40;20109;-62
2021/05/03 00:48:09;;;;;;;8.85;4.20;;;6.00;99.90;;;;;;3529219;40;20911;-61
2021/05/03 00:50:37;;;;;;;12.25;4.30;;;6.00;99.90;;;;;;3535937;40;20057;-61
2021/05/03 00:53:06;;;;;;;7.93;4.15;;;5.90;99.90;;;;;;3529058;40;20054;-61
2021/05/03 00:55:32;;;;;;;7.65;4.18;;;5.90;99.90;;;;;;3527045;40;20058;-61
2021/05/03 00:57:57;;;;;;;7.60;3.85;;;5.80;99.90;;;;;;3526700;40;20153;-61
2021/05/03 01:00:25;;;;;;;14.25;4.32;;;5.80;99.90;;;;;;3530002;40;20043;-61
2021/05/03 01:02:51;;;;;;;10.75;5.38;;;5.80;99.90;;;;;;3529012;40;20038;-61
2021/05/03 01:05:19;;;;;;;12.02;4.03;;;5.70;99.90;;;;;;3530015;40;20031;-61
2021/05/03 01:07:46;;;;;;;8.18;3.92;;;5.70;99.90;;;;;;3528241;40;20129;-61
2021/05/03 01:10:12;;;;;;;16.00;4.25;;;5.70;99.90;;;;;;3536712;40;20781;-61
2021/05/03 01:12:38;;;;;;;10.73;4.75;;;5.70;99.90;;;;;;3531758;40;20062;-61
2021/05/03 01:15:06;;;;;;;9.95;3.65;;;5.70;99.90;;;;;;3531346;40;20038;-61
2021/05/03 01:17:33;;;;;;;9.23;4.22;;;5.80;99.90;;;;;;3531521;40;20034;-61
2021/05/03 01:20:08;;;;;;;8.07;4.13;;;5.80;99.90;;;;;;3529305;40;20284;-61
2021/05/03 01:22:34;;;;;;;7.53;4.05;;;5.80;99.90;;;;;;3531665;40;20136;-62
2021/05/03 01:25:00;;;;;;;8.88;4.30;;;5.70;99.90;;;;;;3530195;40;20035;-61
2021/05/03 01:27:26;;;;;;;8.35;3.97;;;5.70;99.90;;;;;;3530739;40;20038;-61
2021/05/03 01:29:52;;;;;;;10.18;4.30;;;5.70;99.90;;;;;;3530746;40;20165;-61
2021/05/03 01:32:17;;;;;;;10.48;4.05;;;6.30;99.90;;;;;;3530303;40;20038;-61
2021/05/03 01:34:43;;;;;;;10.60;4.13;;;5.60;99.90;;;;;;3530485;40;20083;-61
2021/05/03 01:37:13;;;;;;;8.25;3.75;;;5.50;99.90;;;;;;3530099;40;20027;-61
2021/05/03 01:39:39;;;;;;;12.80;4.40;;;5.50;99.90;;;;;;3530383;40;20071;-62
2021/05/03 01:42:05;;;;;;;15.13;4.57;;;5.50;99.90;;;;;;3530156;40;20049;-61
2021/05/03 01:44:30;;;;;;;11.07;4.18;;;5.40;99.90;;;;;;3529739;40;20054;-62
2021/05/03 01:46:57;;;;;;;10.65;4.32;;;5.30;99.90;;;;;;3529671;40;20129;-61
2021/05/03 01:49:23;;;;;;;10.02;4.20;;;5.30;99.90;;;;;;3528079;40;20483;-61
2021/05/03 01:51:49;;;;;;;11.45;4.07;;;5.30;99.90;;;;;;3529754;40;20713;-61
2021/05/03 01:54:14;;;;;;;7.13;3.67;;;5.50;99.90;;;;;;3530103;40;20079;-68
2021/05/03 01:56:41;;;;;;;10.73;4.10;;;5.20;99.90;;;;;;3527905;40;20522;-68
2021/05/03 01:59:07;;;;;;;8.38;3.53;;;5.20;99.90;;;;;;3530836;40;20043;-61
2021/05/03 02:01:36;;;;;;;5.68;4.05;;;5.20;99.90;;;;;;3537773;40;20038;-61
2021/05/03 02:04:03;;;;;;;5.95;3.50;;;5.20;99.90;;;;;;3530798;40;20035;-61
2021/05/03 02:06:28;;;;;;;9.07;3.83;;;5.20;99.90;;;;;;3531148;40;20050;-61
2021/05/03 02:08:54;;;;;;;10.05;4.05;;;5.20;99.90;;;;;;3531442;40;20042;-69
2021/05/03 02:11:20;;;;;;;7.60;3.78;;;5.10;99.90;;;;;;3530133;40;20027;-69
2021/05/03 02:13:45;;;;;;;9.13;3.88;;;5.10;99.90;;;;;;3530579;40;20073;-69
2021/05/03 02:16:11;;;;;;;16.35;4.10;;;5.10;99.90;;;;;;3530651;40;20031;-69
2021/05/03 02:18:37;;;;;;;10.68;4.20;;;5.10;99.90;;;;;;3537614;40;20027;-70
2021/05/03 02:21:03;;;;;;;7.65;3.78;;;5.70;99.90;;;;;;3530818;40;20124;-69
2021/05/03 02:23:28;;;;;;;14.20;4.20;;;5.10;99.90;;;;;;3530786;40;20603;-69
2021/05/03 02:25:54;;;;;;;7.97;3.70;;;5.00;99.90;;;;;;3530435;40;20049;-69
2021/05/03 02:28:20;;;;;;;10.00;3.75;;;5.00;99.90;;;;;;3529400;40;20667;-69
2021/05/03 02:30:45;;;;;;;7.43;3.92;;;5.00;99.90;;;;;;3528988;40;20913;-69
2021/05/03 02:33:11;;;;;;;9.32;4.35;;;4.90;99.90;;;;;;3530108;40;20859;-68
2021/05/03 02:35:37;;;;;;;8.50;4.13;;;4.90;99.90;;;;;;3529488;40;20049;-68
2021/05/03 02:38:07;;;;;;;13.57;3.85;;;4.90;99.90;;;;;;3530152;40;20349;-69
2021/05/03 02:40:33;;;;;;;11.35;3.97;;;4.90;99.90;;;;;;3529881;40;20157;-69
2021/05/03 02:43:01;;;;;;;7.20;3.90;;;4.90;99.90;;;;;;3530559;40;20046;-69
2021/05/03 02:45:29;;;;;;;17.10;4.20;;;4.80;99.90;;;;;;3530337;40;20788;-69
2021/05/03 02:47:55;;;;;;;10.75;3.55;;;4.60;99.90;;;;;;3530348;40;20039;-69
2021/05/03 02:50:23;;;;;;;9.20;4.38;;;4.70;99.90;;;;;;3529275;40;20345;-69
2021/05/03 02:52:50;;;;;;;7.32;3.75;;;4.00;99.90;;;;;;3530543;40;20034;-68
2021/05/03 02:55:16;;;;;;;11.27;4.47;;;4.60;99.90;;;;;;3529933;40;20047;-68
2021/05/03 02:57:44;;;;;;;13.07;4.15;;;4.70;99.90;;;;;;3529843;40;20669;-68
2021/05/03 03:00:13;;;;;;;9.75;3.97;;;4.60;99.90;;;;;;3529846;40;20082;-68
2021/05/03 03:02:39;;;;;;;12.27;4.65;;;4.50;99.90;;;;;;3528532;40;20038;-69
2021/05/03 03:05:07;;;;;;;12.75;4.13;;;4.50;99.90;;;;;;3529929;40;20117;-69
2021/05/03 03:07:32;;;;;;;7.80;3.90;;;4.50;99.90;;;;;;3529481;40;20681;-69
2021/05/03 03:09:58;;;;;;;9.63;4.20;;;4.50;99.90;;;;;;3529618;40;20129;-69
2021/05/03 03:12:24;;;;;;;8.88;4.43;;;4.60;99.90;;;;;;3529820;40;20431;-69
2021/05/03 03:14:50;;;;;;;8.70;4.20;;;4.40;99.90;;;;;;3529371;40;20117;-69
2021/05/03 03:17:15;;;;;;;10.40;4.40;;;4.50;99.90;;;;;;3529707;40;20121;-69
2021/05/03 03:19:42;;;;;;;10.23;4.72;;;4.70;99.90;;;;;;3528748;40;20102;-69
2021/05/03 03:22:08;;;;;;;11.68;4.43;;;4.40;99.90;;;;;;3528001;40;20053;-68
2021/05/03 03:24:35;;;;;;;14.63;4.32;;;4.30;99.90;;;;;;3528906;40;20054;-69
2021/05/03 03:27:01;;;;;;;5.60;4.10;;;2.20;99.90;;;;;;3529383;40;20133;-69
2021/05/03 03:29:27;;;;;;;12.23;4.82;;;4.40;99.90;;;;;;3529672;40;20701;-68
2021/05/03 03:31:53;;;;;;;14.02;4.40;;;4.30;99.90;;;;;;3528673;40;20063;-68
2021/05/03 03:34:19;;;;;;;10.13;4.80;;;4.30;99.90;;;;;;3529746;40;20038;-69
2021/05/03 03:36:45;;;;;;;10.32;4.32;;;6.70;99.90;;;;;;3529095;40;20063;-68
2021/05/03 03:39:10;;;;;;;9.80;4.50;;;4.40;99.90;;;;;;3529320;40;20579;-61
2021/05/03 03:41:36;;;;;;;9.05;4.53;;;4.50;99.90;;;;;;3528829;40;20050;-61
2021/05/03 03:44:03;;;;;;;18.30;5.43;;;4.60;99.90;;;;;;3529139;40;20856;-61
2021/05/03 03:46:29;;;;;;;9.82;4.68;;;4.50;99.90;;;;;;3529609;40;20038;-61
2021/05/03 03:48:55;;;;;;;8.48;4.75;;;4.60;99.90;;;;;;3529169;40;20043;-61
2021/05/03 03:51:23;;;;;;;9.93;4.70;;;4.60;99.90;;;;;;3529256;40;20604;-61
2021/05/03 03:53:49;;;;;;;12.38;4.78;;;4.60;99.90;;;;;;3528977;40;20051;-61
2021/05/03 03:56:17;;;;;;;10.25;4.80;;;4.60;99.90;;;;;;3536361;40;20054;-61
2021/05/03 03:58:43;;;;;;;9.32;4.60;;;4.60;99.90;;;;;;3528338;40;20050;-61
2021/05/03 04:01:11;;;;;;;7.90;4.43;;;4.50;99.90;;;;;;3529303;40;20057;-61
2021/05/03 04:03:47;;;;;;;10.55;4.47;;;4.40;99.90;;;;;;3527904;40;20043;-61
2021/05/03 04:14:02;;;;;;;9.15;4.70;;;4.30;99.90;;;;;;3528637;40;20741;-60
2021/05/03 04:25:08;;;;;;;16.25;5.45;;;4.30;99.90;;;;;;3533742;40;20875;-68
2021/05/03 04:27:38;;;;;;;20.20;4.88;;;6.20;99.90;;;;;;3528832;40;20042;-68
2021/05/03 04:30:14;;;;;;;12.98;5.07;;;4.30;99.90;;;;;;3527938;40;20062;-68
2021/05/03 04:32:39;;;;;;;11.63;4.68;;;4.40;99.90;;;;;;3524046;40;20031;-69
2021/05/03 04:35:06;;;;;;;14.65;5.10;;;4.50;99.90;;;;;;3529897;40;20387;-69
2021/05/03 04:37:32;;;;;;;13.75;5.10;;;4.50;99.90;;;;;;3530633;40;20535;-68
2021/05/03 04:39:58;;;;;;;12.43;5.00;;;4.50;99.90;;;;;;3537658;40;20409;-68
2021/05/03 04:42:24;;;;;;;13.50;5.70;;;4.40;99.90;;;;;;3530452;40;20034;-69
2021/05/03 04:44:49;;;;;;;13.25;4.88;;;4.40;99.90;;;;;;3531495;40;20105;-69
2021/05/03 04:47:15;;;;;;;11.45;4.82;;;4.30;99.90;;;;;;3530467;40;20031;-69
2021/05/03 04:49:41;;;;;;;14.73;5.13;;;4.30;99.90;;;;;;3530372;40;20049;-68
2021/05/03 04:52:07;;;;;;;13.23;5.15;;;4.30;99.90;;;;;;3529588;40;20042;-69
2021/05/03 04:54:34;;;;;;;15.55;4.88;;;4.30;99.90;;;;;;3530211;40;20043;-68
2021/05/03 04:56:59;;;;;;;13.68;4.97;;;4.30;99.90;;;;;;3529972;40;20394;-69
2021/05/03 04:59:25;;;;;;;10.95;5.57;;;4.30;99.90;;;;;;3525947;40;20054;-68
2021/05/03 05:01:51;;;;;;;11.30;5.10;;;4.30;99.90;;;;;;3529636;40;20062;-69
2021/05/03 05:04:16;;;;;;;13.18;5.78;;;4.30;99.90;;;;;;3530260;40;20137;-69
2021/05/03 05:06:42;;;;;;;14.10;5.60;;;4.30;99.90;;;;;;3529062;40;20704;-69
2021/05/03 05:09:08;;;;;;;16.15;5.22;;;4.30;99.90;;;;;;3529230;40;20031;-68
2021/05/03 05:11:34;;;;;;;9.95;4.88;;;4.30;99.90;;;;;;3529573;40;20047;-69
2021/05/03 05:14:00;;;;;;;12.30;5.75;;;4.30;99.90;;;;;;3529286;40;20094;-69
2021/05/03 05:16:27;;;;;;;16.98;5.57;;;4.40;99.90;;;;;;3528278;40;20455;-69
2021/05/03 05:18:53;;;;;;;9.45;5.05;;;4.50;99.90;;;;;;3528652;40;20046;-68
2021/05/03 05:21:19;;;;;;;14.55;5.55;;;4.60;99.90;;;;;;3530580;40;20033;-68
2021/05/03 05:23:45;;;;;;;13.68;6.10;;;4.70;99.90;;;;;;3531358;40;20034;-61
2021/05/03 05:26:10;;;;;;;13.27;5.53;;;5.00;99.90;;;;;;3531828;40;20031;-61
2021/05/03 05:28:36;;;;;;;17.08;7.57;;;4.90;99.90;;;;;;3530040;40;20041;-68
2021/05/03 05:31:03;;;;;;;9.65;4.97;;;5.00;99.90;;;;;;3531508;40;20693;-69
2021/05/03 05:33:29;;;;;;;12.85;5.35;;;5.00;99.90;;;;;;3531506;40;20413;-69
2021/05/03 05:35:55;;;;;;;8.85;5.78;;;5.00;99.90;;;;;;3530662;40;20095;-69
2021/05/03 05:38:21;;;;;;;11.50;4.75;;;5.20;99.90;;;;;;3529667;40;20039;-70
2021/05/03 05:40:47;;;;;;;11.65;4.78;;;5.30;99.90;;;;;;3527353;40;20486;-69
2021/05/03 05:43:13;;;;;;;11.95;5.32;;;5.40;99.90;;;;;;3529415;40;20039;-69
2021/05/03 05:45:39;;;;;;;15.80;4.72;;;5.50;99.90;;;;;;3528274;40;20034;-69
2021/05/03 05:48:05;;;;;;;14.25;4.28;;;5.60;99.90;;;;;;3529415;40;20505;-68
2021/05/03 05:50:31;;;;;;;8.48;4.68;;;5.70;99.90;;;;;;3529446;40;20082;-68
2021/05/03 05:52:57;;;;;;;12.45;5.05;;;5.80;99.90;;;;;;3529082;40;20044;-68
2021/05/03 05:55:23;;;;;;;10.43;5.60;;;5.90;99.90;;;;;;3529981;40;20019;-67
2021/05/03 05:57:49;;;;;;;12.52;3.95;;;6.00;99.90;;;;;;3529925;40;20035;-60
2021/05/03 06:00:15;;;;;;;10.07;4.25;;;6.10;99.90;;;;;;3530113;40;20030;-61
2021/05/03 06:02:43;;;;;;;9.02;4.07;;;6.30;99.90;;;;;;3528915;40;20138;-69
2021/05/03 06:05:10;;;;;;;11.38;4.10;;;6.40;99.90;;;;;;3530570;40;20035;-68
2021/05/03 06:07:35;;;;;;;12.70;3.80;;;6.60;99.90;;;;;;3531119;40;20031;-69
2021/05/03 06:10:01;;;;;;;9.55;4.28;;;6.70;99.90;;;;;;3530347;40;20046;-67
2021/05/03 06:12:27;;;;;;;6.88;3.20;;;6.80;99.90;;;;;;3532551;40;20035;-61
2021/05/03 06:14:53;;;;;;;6.50;3.30;;;7.00;99.90;;;;;;3531543;40;20137;-61
2021/05/03 06:17:20;;;;;;;5.78;3.47;;;7.20;99.90;;;;;;3532091;40;20039;-61
2021/05/03 06:19:46;;;;;;;9.60;3.65;;;7.40;99.90;;;;;;3531791;40;20042;-61
2021/05/03 06:22:12;;;;;;;8.13;3.80;;;7.60;99.90;;;;;;3531064;40;20367;-61
2021/05/03 06:24:39;;;;;;;10.52;3.50;;;7.90;99.90;;;;;;3531887;40;20042;-61
2021/05/03 06:27:05;;;;;;;7.43;3.47;;;7.60;99.90;;;;;;3530432;40;20467;-61
2021/05/03 06:29:30;;;;;;;8.88;3.85;;;7.50;99.90;;;;;;3531625;40;20355;-61
2021/05/03 06:31:58;;;;;;;10.95;3.90;;;7.50;99.90;;;;;;3531326;40;20038;-61
2021/05/03 06:34:27;;;;;;;6.38;3.65;;;7.40;99.90;;;;;;3531110;40;20078;-68
2021/05/03 06:36:53;;;;;;;8.63;3.75;;;7.40;99.90;;;;;;3531818;40;20050;-67
2021/05/03 06:39:19;;;;;;;7.22;3.85;;;7.40;99.90;;;;;;3531396;40;20089;-66
2021/05/03 06:41:45;;;;;;;11.48;4.32;;;7.40;99.90;;;;;;3531619;40;20071;-68
2021/05/03 06:44:11;;;;;;;13.88;5.15;;;7.40;99.90;;;;;;3531419;40;20042;-67
2021/05/03 06:46:38;;;;;;;7.18;3.78;;;7.50;99.90;;;;;;3531388;40;20046;-67
2021/05/03 06:49:04;;;;;;;11.82;3.95;;;7.40;99.90;;;;;;3531281;40;20023;-66
2021/05/03 06:51:31;;;;;;;10.57;3.47;;;8.50;99.90;;;;;;3531541;40;20039;-67
2021/05/03 06:53:56;;;;;;;6.88;3.35;;;7.40;99.90;;;;;;3531896;40;20057;-66
2021/05/03 06:56:24;;;;;;;6.38;3.35;;;7.50;99.90;;;;;;3531254;40;20041;-67
2021/05/03 06:58:49;;;;;;;13.63;3.92;;;7.80;99.90;;;;;;3531901;40;20054;-68
2021/05/03 07:01:15;;;;;;;8.07;3.15;;;7.90;99.90;;;;;;3531968;40;20035;-67
2021/05/03 07:03:43;;;;;;;8.73;3.17;;;7.90;99.90;;;;;;3530212;40;20049;-67
2021/05/03 07:06:08;;;;;;;5.72;3.65;;;8.00;99.90;;;;;;3531513;40;20046;-60
2021/05/03 07:08:34;;;;;;;6.53;3.65;;;8.00;99.90;;;;;;3532103;40;20034;-59
2021/05/03 07:11:04;;;;;;;6.63;3.15;;;7.90;99.90;;;;;;3531913;40;20046;-60
2021/05/03 07:13:30;;;;;;;6.32;3.50;;;8.00;99.90;;;;;;3530445;40;20050;-61
2021/05/03 07:15:56;;;;;;;11.20;3.45;;;7.90;99.90;;;;;;3531252;40;20070;-60
2021/05/03 07:18:22;;;;;;;6.65;3.25;;;8.00;99.90;;;;;;3531237;40;20083;-60
2021/05/03 07:20:48;;;;;;;8.77;2.88;;;8.10;99.90;;;;;;3530832;40;20430;-60
2021/05/03 07:23:13;;;;;;;6.68;3.17;;;7.50;99.90;;;;;;3530234;40;20042;-67
2021/05/03 07:25:39;;;;;;;4.38;2.50;;;8.40;99.90;;;;;;3531928;40;20820;-67
2021/05/03 07:28:05;;;;;;;6.68;2.70;;;8.50;99.90;;;;;;3531340;40;20111;-67
2021/05/03 07:30:31;;;;;;;5.93;2.35;;;8.70;99.90;;;;;;3530554;40;20035;-68
2021/05/03 07:32:56;;;;;;;9.05;2.15;;;8.70;99.90;;;;;;3529319;40;20042;-68
2021/05/03 07:35:22;;;;;;;6.57;2.80;;;8.70;99.90;;;;;;3530698;40;20145;-67
2021/05/03 07:37:48;;;;;;;4.90;2.00;;;8.60;99.90;;;;;;3530886;40;20049;-67
2021/05/03 07:40:14;;;;;;;4.35;2.22;;;8.60;99.90;;;;;;3530495;40;20043;-67
2021/05/03 07:42:40;;;;;;;4.43;2.35;;;8.50;99.90;;;;;;3538216;40;20070;-68
2021/05/03 07:45:06;;;;;;;7.65;1.90;;;8.60;99.90;;;;;;3530684;40;20069;-67
2021/05/03 07:47:32;;;;;;;7.35;2.15;;;8.50;99.90;;;;;;3530948;40;20046;-67
2021/05/03 07:49:58;;;;;;;6.47;2.22;;;8.50;99.90;;;;;;3530856;40;20057;-67
2021/05/03 07:52:24;;;;;;;5.45;2.05;;;8.60;99.90;;;;;;3530651;40;20149;-67
2021/05/03 07:54:50;;;;;;;6.03;2.47;;;8.50;99.90;;;;;;3531254;40;20031;-67
2021/05/03 07:57:16;;;;;;;12.65;4.75;;;8.70;99.90;;;;;;3530787;40;20334;-67
2021/05/03 07:59:41;;;;;;;3.78;2.17;;;9.10;99.90;;;;;;3529989;40;20119;-67
2021/05/03 08:02:07;;;;;;;7.35;2.20;;;9.40;99.90;;;;;;3530116;40;20100;-67
2021/05/03 08:04:33;;;;;;;4.75;1.63;;;9.60;99.90;;;;;;3530723;40;20050;-67
2021/05/03 08:07:00;;;;;;;3.78;1.80;;;9.70;99.90;;;;;;3530151;40;20059;-68
2021/05/03 08:09:27;;;;;;;4.55;1.65;;;9.50;99.90;;;;;;3528708;40;20808;-68
2021/05/03 08:11:53;;;;;;;4.35;1.55;;;9.40;99.90;;;;;;3530542;40;20542;-67
2021/05/03 08:14:21;;;;;;;4.78;1.80;;;10.30;99.90;;;;;;3530113;40;20047;-68
2021/05/03 08:16:54;;;;;;;4.93;1.30;;;10.00;99.90;;;;;;3530241;40;20031;-67
2021/05/03 08:19:19;;;;;;;4.35;1.30;;;9.90;99.50;;;;;;3529945;40;20038;-67
2021/05/03 08:21:45;;;;;;;3.92;1.33;;;9.60;99.90;;;;;;3529757;40;20058;-67
2021/05/03 08:24:11;;;;;;;3.35;1.42;;;9.50;99.90;;;;;;3530767;40;20035;-67
2021/05/03 08:26:37;;;;;;;3.65;1.30;;;11.70;99.90;;;;;;3530522;40;20087;-67
2021/05/03 08:29:03;;;;;;;1.52;1.17;;;10.10;99.90;;;;;;3530179;40;20038;-67
2021/05/03 08:31:29;;;;;;;4.72;1.52;;;10.30;99.10;;;;;;3529924;40;20091;-60
2021/05/03 08:33:54;;;;;;;3.38;1.40;;;10.60;99.00;;;;;;3530710;40;20716;-60
2021/05/03 08:36:20;;;;;;;3.83;2.05;;;10.70;97.90;;;;;;3530360;40;20420;-60
2021/05/03 08:38:46;;;;;;;6.45;1.80;;;10.30;99.10;;;;;;3531072;40;20049;-60
2021/05/03 08:41:16;;;;;;;2.53;1.40;;;10.00;99.50;;;;;;3530866;40;20047;-60
2021/05/03 08:43:43;;;;;;;4.22;1.30;;;9.90;99.90;;;;;;3530183;40;20078;-60
2021/05/03 08:46:13;;;;;;;9.75;4.57;;;10.10;99.10;;;;;;3530656;40;20074;-60
2021/05/03 08:48:45;;;;;;;4.55;1.35;;;10.30;97.90;;;;;;3536239;40;20378;-60
2021/05/03 08:51:27;;;;;;;2.25;1.10;;;10.50;98.40;;;;;;3528137;40;20098;-60
2021/05/03 08:53:59;;;;;;;2.97;1.35;;;10.40;97.70;;;;;;3527915;40;20757;-60
2021/05/03 08:56:25;;;;;;;6.90;1.55;;;10.20;98.80;;;;;;3529333;40;20039;-60
2021/05/03 08:58:51;;;;;;;4.90;1.23;;;10.10;97.90;;;;;;3529119;40;20042;-60
2021/05/03 09:01:17;;;;;;;2.97;1.23;;;9.90;98.90;;;;;;3529146;40;20042;-60
2021/05/03 09:03:47;;;;;;;6.45;1.40;;;9.70;98.60;;;;;;3529644;40;20134;-60
2021/05/03 09:06:13;;;;;;;5.30;1.33;;;9.70;99.20;;;;;;3529001;40;20055;-60
2021/05/03 09:08:38;;;;;;;4.20;1.35;;;9.70;99.30;;;;;;3530331;40;20046;-61
2021/05/03 09:11:05;;;;;;;4.45;1.08;;;10.30;99.40;;;;;;3530415;40;20110;-61
2021/05/03 09:13:36;;;;;;;6.65;1.20;;;10.90;97.90;;;;;;3529462;40;20129;-60
2021/05/03 09:16:17;;;;;;;7.15;2.40;;;11.00;96.90;;;;;;3528951;40;20054;-61
2021/05/03 09:18:43;;;;;;;2.60;1.20;;;10.90;97.70;;;;;;3529863;40;20113;-61
2021/05/03 09:21:30;;;;;;;4.45;1.40;;;11.00;97.00;;;;;;3531244;40;20042;-60
2021/05/03 09:24:14;;;;;;;5.50;2.70;;;11.60;96.50;;;;;;3531334;40;20054;-61
2021/05/03 09:26:45;;;;;;;3.75;1.83;;;11.90;92.40;;;;;;3532509;40;20035;-60
2021/05/03 09:29:44;;;;;;;6.32;2.05;;;12.10;93.30;;;;;;3531888;40;20046;-60
2021/05/03 09:32:19;;;;;;;24.55;14.57;;;11.80;95.10;;;;;;3531243;40;20133;-60
2021/05/03 09:34:47;;;;;;;54.35;26.63;;;11.40;95.40;;;;;;3530125;40;20031;-61
2021/05/03 09:37:19;;;;;;;26.95;13.25;;;11.10;95.40;;;;;;3531053;40;20050;-60
2021/05/03 09:39:52;;;;;;;9.23;2.42;;;11.00;97.20;;;;;;3530273;40;20137;-60
2021/05/03 09:42:18;;;;;;;3.50;1.30;;;11.30;96.30;;;;;;3530293;40;20051;-61
2021/05/03 09:45:04;;;;;;;6.47;4.57;;;11.60;95.80;;;;;;3529987;40;20336;-60
2021/05/03 09:47:30;;;;;;;3.45;1.42;;;11.80;93.50;;;;;;3529710;40;20469;-61
2021/05/03 09:49:56;;;;;;;1.90;1.30;;;11.80;94.40;;;;;;3529840;40;20141;-60
2021/05/03 09:52:24;;;;;;;1.95;1.13;;;11.70;93.90;;;;;;3530604;40;20043;-60
2021/05/03 09:54:50;;;;;;;2.28;1.10;;;11.70;92.60;;;;;;3530654;40;20124;-60
2021/05/03 09:57:17;;;;;;;2.67;1.30;;;11.70;91.90;;;;;;3530801;40;20035;-60
2021/05/03 09:59:49;;;;;;;4.40;1.10;;;12.00;90.50;;;;;;3530927;40;20039;-61
2021/05/03 10:02:25;;;;;;;5.90;1.80;;;11.90;90.70;;;;;;3531157;40;20403;-60
2021/05/03 10:04:54;;;;;;;5.47;1.95;;;11.70;92.20;;;;;;3529640;40;20129;-60
2021/05/03 10:07:22;;;;;;;10.60;3.47;;;11.70;92.10;;;;;;3530119;40;20054;-60
2021/05/03 10:09:51;;;;;;;10.82;4.07;;;12.10;92.30;;;;;;3538181;40;20031;-61
2021/05/03 10:12:18;;;;;;;9.43;4.82;;;12.50;90.90;;;;;;3530006;40;20352;-62
2021/05/03 10:14:48;;;;;;;3.22;1.30;;;12.40;89.00;;;;;;3531396;40;20051;-60
2021/05/03 10:17:16;;;;;;;6.85;3.10;;;12.00;90.50;;;;;;3531600;40;20046;-60
2021/05/03 10:19:43;;;;;;;4.68;1.58;;;11.20;91.40;;;;;;3530737;40;20129;-60
2021/05/03 10:22:19;;;;;;;4.65;1.20;;;10.90;93.10;;;;;;3530532;40;20055;-61
2021/05/03 10:24:52;;;;;;;8.80;2.65;;;10.80;93.10;;;;;;3529460;40;20105;-61
2021/05/03 10:27:19;;;;;;;8.05;2.50;;;10.80;93.20;;;;;;3530443;40;20043;-61
2021/05/03 10:29:46;;;;;;;11.07;2.35;;;11.40;93.70;;;;;;3526209;40;20074;-61
2021/05/03 10:32:22;;;;;;;7.70;2.35;;;12.40;92.40;;;;;;3528692;40;20051;-61
2021/05/03 10:34:54;;;;;;;17.58;5.50;;;12.90;88.10;;;;;;3529995;40;20733;-60
2021/05/03 10:37:32;;;;;;;19.38;7.30;;;12.70;83.70;;;;;;3530507;40;20042;-60
2021/05/03 10:40:02;;;;;;;6.82;3.10;;;12.50;83.80;;;;;;3528966;40;20057;-61
2021/05/03 10:42:28;;;;;;;3.20;1.85;;;12.40;83.40;;;;;;3529928;40;20062;-60
2021/05/03 10:45:17;;;;;;;17.08;4.78;;;12.20;84.10;;;;;;3537863;40;20102;-60
2021/05/03 10:47:56;;;;;;;5.85;2.10;;;12.00;85.10;;;;;;3527589;40;20031;-60
2021/05/03 10:50:36;;;;;;;14.73;4.82;;;12.00;82.70;;;;;;3530183;40;20076;-68
2021/05/03 10:56:00;;;;;;;8.07;2.03;;;12.40;84.20;;;;;;3530367;40;20054;-68
2021/05/03 10:58:26;;;;;;;10.63;4.97;;;12.30;84.50;;;;;;3530575;40;20050;-68
2021/05/03 11:00:56;;;;;;;2.28;1.25;;;11.90;84.60;;;;;;3530379;40;20046;-71
2021/05/03 11:03:59;;;;;;;5.30;2.38;;;11.70;88.20;;;;;;3528993;40;20810;-67
2021/05/03 11:06:37;;;;;;;11.20;5.50;;;11.50;90.50;;;;;;3530355;40;20086;-68
2021/05/03 11:09:34;;;;;;;7.15;3.60;;;11.50;92.90;;;;;;3529304;40;20052;-68
2021/05/03 11:12:06;;;;;;;3.30;1.17;;;12.40;90.30;;;;;;3530072;40;20082;-67
2021/05/03 11:14:41;;;;;;;11.50;4.65;;;12.30;85.70;;;;;;3527373;40;20046;-68
2021/05/03 11:17:10;;;;;;;3.88;1.60;;;12.20;89.60;;;;;;3530619;40;20038;-68
2021/05/03 11:20:11;;;;;;;1.77;1.40;;;12.20;86.50;;;;;;3529263;40;20038;-67
2021/05/03 11:22:47;;;;;;;12.73;7.10;;;12.70;87.10;;;;;;3529765;40;20826;-69
2021/05/03 11:25:26;;;;;;;5.65;2.42;;;13.10;84.30;;;;;;3529781;40;20074;-69
2021/05/03 11:33:01;;;;;;;3.25;1.33;;;13.20;79.50;;;;;;3528393;40;20035;-68
2021/05/03 11:39:06;;;;;;;2.28;1.38;;;13.40;74.70;;;;;;3529322;40;20046;-68
2021/05/03 11:43:56;;;;;;;1.63;1.02;;;12.60;75.80;;;;;;3529909;40;20791;-69
2021/05/03 11:46:30;;;;;;;7.40;1.40;;;12.70;75.90;;;;;;3529107;40;20039;-68
2021/05/03 11:49:17;;;;;;;3.90;1.27;;;12.60;77.00;;;;;;3529601;40;20745;-67
2021/05/03 11:51:57;;;;;;;16.85;6.85;;;12.60;78.90;;;;;;3526759;40;20335;-67
2021/05/03 11:54:27;;;;;;;2.83;1.23;;;12.80;80.90;;;;;;3529606;40;20122;-68
2021/05/03 11:57:07;;;;;;;3.05;1.05;;;13.10;77.70;;;;;;3527660;40;20041;-67
2021/05/03 11:59:34;;;;;;;4.13;1.50;;;13.40;74.60;;;;;;3529979;40;20046;-69
2021/05/03 12:02:05;;;;;;;8.18;1.55;;;13.20;76.30;;;;;;3529494;40;20503;-68
2021/05/03 12:04:43;;;;;;;3.95;1.30;;;13.20;76.50;;;;;;3528498;40;20329;-67
2021/05/03 12:07:22;;;;;;;6.97;1.75;;;13.20;76.80;;;;;;3528206;40;20042;-66
2021/05/03 12:10:10;;;;;;;4.07;2.30;;;13.20;76.40;;;;;;3529296;40;20042;-67
2021/05/03 12:12:47;;;;;;;3.08;2.20;;;13.10;80.70;;;;;;3527463;40;20043;-67
2021/05/03 12:15:28;;;;;;;9.77;3.92;;;12.80;80.20;;;;;;3529450;40;20043;-67
2021/05/03 12:17:55;;;;;;;3.90;2.08;;;12.40;83.50;;;;;;3527608;40;20439;-67
2021/05/03 12:20:23;;;;;;;3.95;1.55;;;12.60;84.30;;;;;;3527519;40;20081;-67
2021/05/03 12:22:57;;;;;;;5.88;2.22;;;12.80;84.60;;;;;;3529284;40;20094;-67
2021/05/03 12:25:26;;;;;;;5.10;2.53;;;12.70;83.10;;;;;;3527271;40;20043;-67
2021/05/03 12:27:52;;;;;;;3.88;1.85;;;12.60;86.10;;;;;;3529668;40;20841;-67
2021/05/03 12:30:19;;;;;;;7.50;3.40;;;12.50;87.80;;;;;;3529263;40;20054;-66
2021/05/03 12:32:45;;;;;;;5.05;2.72;;;12.40;85.10;;;;;;3527812;40;20042;-67
2021/05/03 12:35:15;;;;;;;5.03;1.95;;;12.30;85.30;;;;;;3529061;40;20088;-67
2021/05/03 12:37:41;;;;;;;2.80;1.58;;;12.50;87.30;;;;;;3528719;40;20034;-67
2021/05/03 12:40:13;;;;;;;6.63;1.75;;;12.90;84.60;;;;;;3528966;40;20039;-67
2021/05/03 12:42:53;;;;;;;2.78;1.73;;;13.10;84.00;;;;;;3528293;40;20067;-67
2021/05/03 12:45:30;;;;;;;2.30;1.58;;;12.90;82.20;;;;;;3529190;40;20046;-67
2021/05/03 12:48:29;;;;;;;4.82;2.55;;;12.90;83.30;;;;;;3528508;40;20078;-67
2021/05/03 13:01:42;;;;;;;4.13;2.00;;;11.70;92.20;;;;;;3529283;40;20043;-67
2021/05/03 13:29:23;;;;;;;4.55;3.20;;;11.90;96.60;;;;;;3530097;40;20133;-67
2021/05/03 13:31:49;;;;;;;7.03;3.63;;;13.20;94.00;;;;;;3530449;40;20090;-68
2021/05/03 13:34:18;;;;;;;6.43;3.33;;;14.30;90.60;;;;;;3529217;40;20722;-67
2021/05/03 13:36:46;;;;;;;7.75;3.70;;;14.40;82.60;;;;;;3530570;40;20106;-66
2021/05/03 13:39:13;;;;;;;5.68;3.30;;;14.10;83.80;;;;;;3530592;40;20710;-67
2021/05/03 13:41:41;;;;;;;8.80;3.78;;;14.00;84.60;;;;;;3529277;40;20096;-60
2021/05/03 13:44:09;;;;;;;4.63;3.22;;;14.00;85.40;;;;;;3529383;40;20039;-60
2021/05/03 13:46:40;;;;;;;7.15;2.78;;;14.10;84.60;;;;;;3527326;40;20033;-60
2021/05/03 13:49:06;;;;;;;4.95;3.22;;;14.20;86.40;;;;;;3529464;40;20046;-60
2021/05/03 13:51:32;;;;;;;4.07;3.00;;;14.40;84.20;;;;;;3529946;40;20039;-60
2021/05/03 13:53:59;;;;;;;5.80;3.13;;;14.40;85.90;;;;;;3530891;40;20031;-68
2021/05/03 13:56:25;;;;;;;8.40;3.58;;;14.40;82.70;;;;;;3529861;40;20034;-67
2021/05/03 13:58:51;;;;;;;7.40;4.60;;;14.20;81.20;;;;;;3529066;40;20033;-67
2021/05/03 14:01:17;;;;;;;25.30;13.00;;;13.80;84.40;;;;;;3528892;40;20043;-68
2021/05/03 14:03:43;;;;;;;40.42;22.77;;;13.60;83.90;;;;;;3529764;40;20064;-67